Aérodrome :
LOGIN :

S'inscrire | Disclaimer

   EN    FR    IT 

 










Légende :    VFR   VFR Marginal   IFR   IFR Intensif   IFR Très Intensif
Visi : 
Plafond : 
>= 8 km
>= 3000ft
5 à 8 km
1000 à 3000 ft
1500m à 5 km
500 à 1000 ft
800 à 1500m
200 à 500 ft
< 800m
< 200 ft
Symboles :   Orages  Brouillard  Fortes neiges  Fortes précipitations  Vent > 20 kt
SIGMETs :   Divers  Orages  Givrage  Turbulence  Onde Orograph.  Cendres Volcan.







- Altitude de l'aérodrome : 17 ft
- Code IATA : KLR


ESMQ - Kalmar

DERNIER METAR :
  • 150350Z AUTO 04008KT 9999 OVC037/// 01/M02 Q1033

METARs EXPIRÉS :
  • 150320Z AUTO 03009KT 9999 OVC036/// 01/M01 Q1033
  • 150250Z AUTO 04008KT 9999 FEW034/// OVC038/// 01/M01 Q1033
  • 150220Z AUTO 03007KT 9999 SCT037/// OVC045/// 01/M01 Q1033
  • 150150Z AUTO 05010KT 9999 OVC045/// 02/M02 Q1033
  • 150120Z AUTO 04009KT 9999 OVC045/// 02/M01 Q1033

Prévision TAF périmée.
Pas de NOTAMs connus pour ce terrain.



MET'MAP, la Météo Aéronautique d'un coup d'oeil ! - Copyright ORBIFLY Décembre 2007 - Disclaimer

ORBIFLY MET'MAP TEAM :

Programmation & Développement : Alexandra Zaïnal
Conception & Développement : Baudouin d'Aumeries
Co-Programmation & Développement : Marc-Olivier Méhu
Soutien technique & logistique : Manuel Goepfert

Contact : metmap@orbifly.com




SOURCES & CREDITS :

   NOAA